createdAt,value
2023-05-25T00:00:08.366Z,0.53
2023-05-25T00:01:08.399Z,0.52
2023-05-25T00:02:08.510Z,0.52
2023-05-25T00:03:08.590Z,0.53
2023-05-25T00:04:08.744Z,0.52
2023-05-25T00:05:07.624Z,0.52
2023-05-25T00:06:07.708Z,0.52
2023-05-25T00:07:08.716Z,0.53
2023-05-25T00:08:08.755Z,0.53
2023-05-25T00:09:08.817Z,0.55
2023-05-25T00:10:07.859Z,0.53
2023-05-25T00:11:07.930Z,0.52
2023-05-25T00:12:07.999Z,0.53
2023-05-25T00:13:08.060Z,0.53
2023-05-25T00:14:09.073Z,0.52
2023-05-25T00:15:08.127Z,0.52
2023-05-25T00:16:09.192Z,0.53
2023-05-25T00:17:09.247Z,0.52
2023-05-25T00:18:09.292Z,0.52
2023-05-25T00:19:09.344Z,0.53
2023-05-25T00:20:09.458Z,0.53
2023-05-25T00:21:09.433Z,0.53
2023-05-25T00:22:08.495Z,0.52
2023-05-25T00:23:09.551Z,0.54
2023-05-25T00:24:09.594Z,0.53
2023-05-25T00:25:08.625Z,0.53
2023-05-25T00:26:09.667Z,0.53
2023-05-25T00:27:09.700Z,0.54
2023-05-25T00:28:08.724Z,0.53
2023-05-25T00:29:09.775Z,0.52
2023-05-25T00:30:09.783Z,0.53
2023-05-25T00:31:09.828Z,0.53
2023-05-25T00:32:09.807Z,0.53
2023-05-25T00:33:09.917Z,0.52
2023-05-25T00:34:09.892Z,0.52
2023-05-25T00:35:08.961Z,0.53
2023-05-25T00:36:08.983Z,0.53
2023-05-25T00:37:09.097Z,0.53
2023-05-25T00:38:09.096Z,0.54
2023-05-25T00:39:10.162Z,0.52
2023-05-25T00:40:10.223Z,0.52
2023-05-25T00:41:10.306Z,0.53
2023-05-25T00:42:09.374Z,0.52
2023-05-25T00:43:10.413Z,0.52
2023-05-25T00:44:09.442Z,0.53
2023-05-25T00:45:10.531Z,0.52
2023-05-25T00:46:09.584Z,0.51
2023-05-25T00:47:10.581Z,0.53
2023-05-25T00:48:10.667Z,0.52
2023-05-25T00:49:09.634Z,0.52
2023-05-25T00:50:10.662Z,0.52
2023-05-25T00:51:10.686Z,0.52
2023-05-25T00:52:09.712Z,0.52
2023-05-25T00:53:10.762Z,0.52
2023-05-25T00:54:10.800Z,0.52
2023-05-25T00:55:10.848Z,0.52
2023-05-25T00:56:10.891Z,0.51
2023-05-25T00:57:10.944Z,0.51
2023-05-25T00:58:11.009Z,0.52
2023-05-25T00:59:10.066Z,0.52
2023-05-25T01:00:10.108Z,0.52
2023-05-25T01:01:10.195Z,0.53
2023-05-25T01:02:10.414Z,0.52
2023-05-25T01:03:11.347Z,0.52
2023-05-25T01:04:10.378Z,0.52
2023-05-25T01:05:11.380Z,0.53
2023-05-25T01:06:10.411Z,0.53
2023-05-25T01:07:11.451Z,0.53
2023-05-25T01:08:11.512Z,0.51
2023-05-25T01:09:10.533Z,0.52
2023-05-25T01:10:11.587Z,0.52
2023-05-25T01:11:10.609Z,0.53
2023-05-25T01:12:11.631Z,0.52
2023-05-25T01:13:10.664Z,0.52
2023-05-25T01:14:11.703Z,0.51
2023-05-25T01:15:10.774Z,0.53
2023-05-25T01:16:10.831Z,0.53
2023-05-25T01:17:10.879Z,0.53
2023-05-25T01:18:11.974Z,0.52
2023-05-25T01:19:11.964Z,0.52
2023-05-25T01:20:12.029Z,0.53
2023-05-25T01:21:11.037Z,0.53
2023-05-25T01:22:12.112Z,0.53
2023-05-25T01:23:12.156Z,0.53
2023-05-25T01:24:12.258Z,0.53
2023-05-25T01:25:12.250Z,0.52
2023-05-25T01:26:11.300Z,0.52
2023-05-25T01:27:12.354Z,0.53
2023-05-25T01:28:11.393Z,0.53
2023-05-25T01:29:12.445Z,0.52
2023-05-25T01:30:11.474Z,0.53
2023-05-25T01:31:12.537Z,0.53
2023-05-25T01:32:11.671Z,0.52
2023-05-25T01:33:12.717Z,0.52
2023-05-25T01:34:12.713Z,0.51
2023-05-25T01:35:11.732Z,0.51
2023-05-25T01:36:12.793Z,0.52
2023-05-25T01:37:12.854Z,0.52
2023-05-25T01:38:13.781Z,0.53
2023-05-25T01:39:11.958Z,0.51
2023-05-25T01:40:13.012Z,0.51
2023-05-25T01:41:13.059Z,0.51
2023-05-25T01:42:13.100Z,0.51
2023-05-25T01:43:13.180Z,0.52
2023-05-25T01:44:12.193Z,0.53
2023-05-25T01:45:12.271Z,0.52
2023-05-25T01:46:12.329Z,0.52
2023-05-25T01:47:12.340Z,0.53
2023-05-25T01:48:13.540Z,0.52
2023-05-25T01:49:13.498Z,0.52
2023-05-25T01:50:12.518Z,0.51
2023-05-25T01:51:13.550Z,0.52
2023-05-25T01:52:13.641Z,0.51
2023-05-25T01:53:12.622Z,0.53
2023-05-25T01:54:12.685Z,0.51
2023-05-25T01:55:13.683Z,0.52
2023-05-25T01:56:13.749Z,0.51
2023-05-25T01:57:13.755Z,0.51
2023-05-25T01:58:12.781Z,0.52
2023-05-25T01:59:13.831Z,0.52
2023-05-25T02:00:13.856Z,0.50
2023-05-25T02:01:13.925Z,0.51
2023-05-25T02:02:12.946Z,0.51
2023-05-25T02:03:13.986Z,0.51
2023-05-25T02:04:14.073Z,0.51
2023-05-25T02:05:14.133Z,0.51
2023-05-25T02:06:13.135Z,0.51
2023-05-25T02:07:14.185Z,0.53
2023-05-25T02:08:13.256Z,0.52
2023-05-25T02:09:13.304Z,0.52
2023-05-25T02:10:14.367Z,0.51
2023-05-25T02:11:13.408Z,0.51
2023-05-25T02:12:14.453Z,0.52
2023-05-25T02:13:14.525Z,0.51
2023-05-25T02:14:14.558Z,0.51
2023-05-25T02:15:14.615Z,0.51
2023-05-25T02:16:14.732Z,0.51
2023-05-25T02:17:13.704Z,0.51
2023-05-25T02:18:14.769Z,0.51
2023-05-25T02:19:14.824Z,0.51
2023-05-25T02:20:14.867Z,0.52
2023-05-25T02:21:13.930Z,0.51
2023-05-25T02:22:14.966Z,0.52
2023-05-25T02:23:15.026Z,0.52
2023-05-25T02:24:15.062Z,0.51
2023-05-25T02:25:15.122Z,0.51
2023-05-25T02:26:14.155Z,0.51
2023-05-25T02:27:14.212Z,0.53
2023-05-25T02:28:15.290Z,0.52
2023-05-25T02:29:14.355Z,0.51
2023-05-25T02:30:15.368Z,0.52
2023-05-25T02:31:15.471Z,0.51
2023-05-25T02:32:14.464Z,0.51
2023-05-25T02:33:15.549Z,0.52
2023-05-25T02:34:14.611Z,0.52
2023-05-25T02:35:15.629Z,0.52
2023-05-25T02:36:15.707Z,0.51
2023-05-25T02:37:14.730Z,0.52
2023-05-25T02:38:14.747Z,0.51
2023-05-25T02:39:14.784Z,0.51
2023-05-25T02:40:15.797Z,0.51
2023-05-25T02:41:15.828Z,0.51
2023-05-25T02:42:14.873Z,0.52
2023-05-25T02:43:15.907Z,0.51
2023-05-25T02:44:15.984Z,0.52
2023-05-25T02:45:15.006Z,0.52
2023-05-25T02:46:16.105Z,0.52
2023-05-25T02:47:15.110Z,0.51
2023-05-25T02:48:16.178Z,0.51
2023-05-25T02:49:15.232Z,0.51
2023-05-25T02:50:15.277Z,0.51
2023-05-25T02:51:16.333Z,0.51
2023-05-25T02:52:16.422Z,0.52
2023-05-25T02:53:16.450Z,0.50
2023-05-25T02:54:16.519Z,0.51
2023-05-25T02:55:15.579Z,0.51
2023-05-25T02:56:16.638Z,0.52
2023-05-25T02:57:15.683Z,0.52
2023-05-25T02:58:16.724Z,0.52
2023-05-25T02:59:16.773Z,0.52
2023-05-25T03:00:16.827Z,0.53
2023-05-25T03:01:16.934Z,0.52
2023-05-25T03:02:15.945Z,0.52
2023-05-25T03:03:16.038Z,0.52
2023-05-25T03:04:16.052Z,0.52
2023-05-25T03:05:16.129Z,0.51
2023-05-25T03:06:17.181Z,0.52
2023-05-25T03:07:16.241Z,0.51
2023-05-25T03:08:17.331Z,0.52
2023-05-25T03:09:16.343Z,0.51
2023-05-25T03:10:17.397Z,0.51
2023-05-25T03:11:17.446Z,0.51
2023-05-25T03:12:17.507Z,0.51
2023-05-25T03:13:17.607Z,0.51
2023-05-25T03:14:17.630Z,0.52
2023-05-25T03:15:17.688Z,0.51
2023-05-25T03:16:16.789Z,0.51
2023-05-25T03:17:17.826Z,0.51
2023-05-25T03:18:16.849Z,0.51
2023-05-25T03:19:17.930Z,0.51
2023-05-25T03:20:17.088Z,0.51
2023-05-25T03:21:17.977Z,0.51
2023-05-25T03:22:18.023Z,0.51
2023-05-25T03:23:17.037Z,0.52
2023-05-25T03:24:17.104Z,0.51
2023-05-25T03:25:17.120Z,0.52
2023-05-25T03:26:18.144Z,0.52
2023-05-25T03:27:18.163Z,0.51
2023-05-25T03:28:18.206Z,0.52
2023-05-25T03:29:18.228Z,0.51
2023-05-25T03:30:17.271Z,0.50
2023-05-25T03:31:18.299Z,0.50
2023-05-25T03:32:18.435Z,0.51
2023-05-25T03:33:18.402Z,0.51
2023-05-25T03:34:18.438Z,0.50
2023-05-25T03:35:18.501Z,0.50
2023-05-25T03:36:17.565Z,0.51
2023-05-25T03:37:17.624Z,0.52
2023-05-25T03:38:17.679Z,0.51
2023-05-25T03:39:18.724Z,0.51
2023-05-25T03:40:18.925Z,0.52
2023-05-25T03:41:18.836Z,0.51
2023-05-25T03:42:18.881Z,0.50
2023-05-25T03:43:18.955Z,0.51
2023-05-25T03:44:18.022Z,0.51
2023-05-25T03:45:19.080Z,0.51
2023-05-25T03:46:19.164Z,0.51
2023-05-25T03:47:19.199Z,0.52
2023-05-25T03:48:19.230Z,0.52
2023-05-25T03:49:19.316Z,0.52
2023-05-25T03:50:18.343Z,0.52
2023-05-25T03:51:19.414Z,0.51
2023-05-25T03:52:19.452Z,0.51
2023-05-25T03:53:19.517Z,0.52
2023-05-25T03:54:19.565Z,0.51
2023-05-25T03:55:18.643Z,0.51
2023-05-25T03:56:19.704Z,0.51
2023-05-25T03:57:18.758Z,0.51
2023-05-25T03:58:18.792Z,0.51
2023-05-25T03:59:18.864Z,0.51
2023-05-25T04:00:19.899Z,0.52
2023-05-25T04:01:19.965Z,0.52
2023-05-25T04:02:20.070Z,0.51
2023-05-25T04:03:19.291Z,0.51
2023-05-25T04:04:19.182Z,0.51
2023-05-25T04:05:20.160Z,0.51
2023-05-25T04:06:19.224Z,0.51
2023-05-25T04:07:20.274Z,0.52
2023-05-25T04:08:20.335Z,0.52
2023-05-25T04:09:20.382Z,0.53
2023-05-25T04:10:20.454Z,0.51
2023-05-25T04:11:20.480Z,0.50
2023-05-25T04:12:20.569Z,0.51
2023-05-25T04:13:20.583Z,0.52
2023-05-25T04:14:20.648Z,0.51
2023-05-25T04:15:20.712Z,0.53
2023-05-25T04:16:20.784Z,0.52
2023-05-25T04:17:20.803Z,0.51
2023-05-25T04:18:19.885Z,0.52
2023-05-25T04:19:20.909Z,0.52
2023-05-25T04:20:20.994Z,0.51
2023-05-25T04:21:20.041Z,0.50
2023-05-25T04:22:21.076Z,0.51
2023-05-25T04:23:21.144Z,0.51
2023-05-25T04:24:20.200Z,0.50
2023-05-25T04:25:20.268Z,0.51
2023-05-25T04:26:21.319Z,0.52
2023-05-25T04:27:21.381Z,0.52
2023-05-25T04:28:21.465Z,0.52
2023-05-25T04:29:21.513Z,0.52
2023-05-25T04:30:21.589Z,0.52
2023-05-25T04:31:20.651Z,0.53
2023-05-25T04:32:20.710Z,0.51
2023-05-25T04:33:21.727Z,0.52
2023-05-25T04:34:21.777Z,0.52
2023-05-25T04:35:21.844Z,0.52
2023-05-25T04:36:21.906Z,0.51
2023-05-25T04:37:21.952Z,0.51
2023-05-25T04:38:22.001Z,0.52
2023-05-25T04:39:22.032Z,0.52
2023-05-25T04:40:22.129Z,0.52
2023-05-25T04:41:21.158Z,0.52
2023-05-25T04:42:21.244Z,0.51
2023-05-25T04:43:22.279Z,0.51
2023-05-25T04:44:21.393Z,0.51
2023-05-25T04:45:22.405Z,0.52
2023-05-25T04:46:22.580Z,0.52
2023-05-25T04:47:21.531Z,0.52
2023-05-25T04:48:22.562Z,0.51
2023-05-25T04:49:22.615Z,0.52
2023-05-25T04:50:22.689Z,0.51
2023-05-25T04:51:21.736Z,0.51
2023-05-25T04:52:21.787Z,0.52
2023-05-25T04:53:21.876Z,0.52
2023-05-25T04:54:22.936Z,0.52
2023-05-25T04:55:22.962Z,0.52
2023-05-25T04:56:23.025Z,0.51
2023-05-25T04:57:22.076Z,0.50
2023-05-25T04:58:22.142Z,0.51
2023-05-25T04:59:23.301Z,0.51
2023-05-25T05:00:23.289Z,0.51
2023-05-25T05:01:23.409Z,0.51
2023-05-25T05:02:23.402Z,0.52
2023-05-25T05:03:23.553Z,0.52
2023-05-25T05:04:23.509Z,0.51
2023-05-25T05:05:23.559Z,0.51
2023-05-25T05:06:22.555Z,0.51
2023-05-25T05:07:22.612Z,0.51
2023-05-25T05:08:22.655Z,0.51
2023-05-25T05:09:23.709Z,0.52
2023-05-25T05:10:22.808Z,0.52
2023-05-25T05:11:23.845Z,0.51
2023-05-25T05:12:23.947Z,0.52
2023-05-25T05:13:23.970Z,0.52
2023-05-25T05:14:24.012Z,0.52
2023-05-25T05:15:23.072Z,0.51
2023-05-25T05:16:24.156Z,0.51
2023-05-25T05:17:24.212Z,0.52
2023-05-25T05:18:24.238Z,0.50
2023-05-25T05:19:24.284Z,0.51
2023-05-25T05:20:24.376Z,0.51
2023-05-25T05:21:24.385Z,0.52
2023-05-25T05:22:23.453Z,0.52
2023-05-25T05:23:24.508Z,0.50
2023-05-25T05:24:23.554Z,0.51
2023-05-25T05:25:24.623Z,0.52
2023-05-25T05:26:24.692Z,0.51
2023-05-25T05:27:24.767Z,0.51
2023-05-25T05:28:24.792Z,0.50
2023-05-25T05:29:23.852Z,0.53
2023-05-25T05:30:24.933Z,0.51
2023-05-25T05:31:23.988Z,0.51
2023-05-25T05:32:25.118Z,0.51
2023-05-25T05:33:24.183Z,0.50
2023-05-25T05:34:25.115Z,0.51
2023-05-25T05:35:25.162Z,0.51
2023-05-25T05:36:25.230Z,0.52
2023-05-25T05:37:25.287Z,0.52
2023-05-25T05:38:25.348Z,0.51
2023-05-25T05:39:25.412Z,0.51
2023-05-25T05:40:25.456Z,0.52
2023-05-25T05:41:24.508Z,0.51
2023-05-25T05:42:25.561Z,0.52
2023-05-25T05:43:25.623Z,0.52
2023-05-25T05:44:27.861Z,0.52
2023-05-25T05:45:24.705Z,0.52
2023-05-25T05:46:24.761Z,0.52
2023-05-25T05:47:25.709Z,0.52
2023-05-25T05:48:25.671Z,0.51
2023-05-25T05:49:24.639Z,0.52
2023-05-25T05:50:25.637Z,0.52
2023-05-25T05:51:25.650Z,0.51
2023-05-25T05:52:25.620Z,0.51
2023-05-25T05:53:24.605Z,0.51
2023-05-25T05:54:25.614Z,0.51
2023-05-25T05:55:25.903Z,0.51
2023-05-25T05:56:25.586Z,0.52
2023-05-25T05:57:25.599Z,0.52
2023-05-25T05:58:25.574Z,0.51
2023-05-25T05:59:24.575Z,0.52
2023-05-25T06:00:24.886Z,0.52
2023-05-25T06:01:25.565Z,0.50
2023-05-25T06:02:24.703Z,0.52
2023-05-25T06:03:25.596Z,0.52
2023-05-25T06:04:24.687Z,0.51
2023-05-25T06:05:24.658Z,0.50
2023-05-25T06:06:24.664Z,0.51
2023-05-25T06:07:24.695Z,0.51
2023-05-25T06:08:24.727Z,0.51
2023-05-25T06:09:24.774Z,0.51
2023-05-25T06:10:25.806Z,0.51
2023-05-25T06:11:25.837Z,0.51
2023-05-25T06:12:25.889Z,0.51
2023-05-25T06:13:25.935Z,0.51
2023-05-25T06:14:26.825Z,0.50
2023-05-25T06:15:25.023Z,0.52
2023-05-25T06:16:26.048Z,0.52
2023-05-25T06:17:26.028Z,0.52
2023-05-25T06:18:25.983Z,0.52
2023-05-25T06:19:25.973Z,0.50
2023-05-25T06:20:26.049Z,0.52
2023-05-25T06:21:25.988Z,0.51
2023-05-25T06:22:25.959Z,0.52
2023-05-25T06:23:25.978Z,0.51
2023-05-25T06:24:24.961Z,0.51
2023-05-25T06:25:24.938Z,0.51
2023-05-25T06:26:25.925Z,0.51
2023-05-25T06:27:24.929Z,0.51
2023-05-25T06:28:24.909Z,0.50
2023-05-25T06:29:25.931Z,0.50
2023-05-25T06:30:25.932Z,0.51
2023-05-25T06:31:25.979Z,0.50
2023-05-25T06:32:25.922Z,0.52
2023-05-25T06:33:25.885Z,0.50
2023-05-25T06:34:25.873Z,0.51
2023-05-25T06:35:25.903Z,0.51
2023-05-25T06:36:27.444Z,0.51
2023-05-25T06:37:25.123Z,0.51
2023-05-25T06:38:26.159Z,0.51
2023-05-25T06:39:25.241Z,0.51
2023-05-25T06:40:26.296Z,0.51
2023-05-25T06:41:26.357Z,0.52
2023-05-25T06:42:25.422Z,0.51
2023-05-25T06:43:25.467Z,0.51
2023-05-25T06:44:26.565Z,0.51
2023-05-25T06:45:25.629Z,0.52
2023-05-25T06:46:25.794Z,0.52
2023-05-25T06:47:27.505Z,0.52
2023-05-25T06:48:26.787Z,0.52
2023-05-25T06:49:26.848Z,0.52
2023-05-25T06:50:26.966Z,0.52
2023-05-25T06:51:26.982Z,0.52
2023-05-25T06:52:27.073Z,0.53
2023-05-25T06:53:27.068Z,0.52
2023-05-25T06:54:26.128Z,0.51
2023-05-25T06:55:27.182Z,0.51
2023-05-25T06:56:26.399Z,0.52
2023-05-25T06:57:27.335Z,0.52
2023-05-25T06:58:26.356Z,0.52
2023-05-25T06:59:27.374Z,0.52
2023-05-25T07:00:26.485Z,0.52
2023-05-25T07:01:27.549Z,0.51
2023-05-25T07:02:27.560Z,0.51
2023-05-25T07:03:27.619Z,0.52
2023-05-25T07:04:27.727Z,0.51
2023-05-25T07:05:26.831Z,0.53
2023-05-25T07:06:26.796Z,0.52
2023-05-25T07:07:27.852Z,0.51
2023-05-25T07:08:27.946Z,0.51
2023-05-25T07:09:27.962Z,0.51
2023-05-25T07:10:28.025Z,0.51
2023-05-25T07:11:28.083Z,0.51
2023-05-25T07:12:28.141Z,0.52
2023-05-25T07:13:28.252Z,0.51
2023-05-25T07:14:28.256Z,0.52
2023-05-25T07:15:28.310Z,0.51
2023-05-25T07:16:28.364Z,0.51
2023-05-25T07:17:28.384Z,0.52
2023-05-25T07:18:27.396Z,0.52
2023-05-25T07:19:28.457Z,0.52
2023-05-25T07:20:27.609Z,0.52
2023-05-25T07:21:28.572Z,0.51
2023-05-25T07:22:28.632Z,0.51
2023-05-25T07:23:28.688Z,0.52
2023-05-25T07:24:28.790Z,0.52
2023-05-25T07:25:28.824Z,0.52
2023-05-25T07:26:27.887Z,0.50
2023-05-25T07:27:28.947Z,0.51
2023-05-25T07:28:29.008Z,0.51
2023-05-25T07:29:29.067Z,0.51
2023-05-25T07:30:29.133Z,0.52
2023-05-25T07:31:28.197Z,0.52
2023-05-25T07:32:29.303Z,0.50
2023-05-25T07:33:29.290Z,0.51
2023-05-25T07:34:29.338Z,0.51
2023-05-25T07:35:29.393Z,0.51
2023-05-25T07:36:28.428Z,0.51
2023-05-25T07:37:29.486Z,0.51
2023-05-25T07:38:29.565Z,0.51
2023-05-25T07:39:28.609Z,0.51
2023-05-25T07:40:29.695Z,0.50
2023-05-25T07:41:29.745Z,0.52
2023-05-25T07:42:28.804Z,0.52
2023-05-25T07:43:28.848Z,0.52
2023-05-25T07:44:29.942Z,0.52
2023-05-25T07:45:28.989Z,0.52
2023-05-25T07:46:30.470Z,0.53
2023-05-25T07:47:30.131Z,0.53
2023-05-25T07:48:29.145Z,0.51
2023-05-25T07:49:29.170Z,0.52
2023-05-25T07:50:31.885Z,0.51
2023-05-25T07:51:30.435Z,0.52
2023-05-25T07:52:30.202Z,0.53
2023-05-25T07:53:30.215Z,0.52
2023-05-25T07:54:30.201Z,0.52
2023-05-25T07:55:29.198Z,0.52
2023-05-25T07:56:30.204Z,0.53
2023-05-25T07:57:30.170Z,0.51
2023-05-25T07:58:30.171Z,0.51
2023-05-25T07:59:30.146Z,0.51
2023-05-25T08:00:30.160Z,0.51
2023-05-25T08:01:30.140Z,0.51
2023-05-25T08:02:29.215Z,0.51
2023-05-25T08:03:47.380Z,0.52
2023-05-25T08:04:30.269Z,0.52
2023-05-25T08:05:29.124Z,0.52
2023-05-25T08:06:30.104Z,0.52
2023-05-25T08:07:29.104Z,0.52
2023-05-25T08:08:29.100Z,0.53
2023-05-25T08:09:29.177Z,0.51
2023-05-25T08:10:30.067Z,0.51
2023-05-25T08:11:29.078Z,0.53
2023-05-25T08:12:38.447Z,0.52
2023-05-25T08:13:30.055Z,0.52
2023-05-25T08:14:30.062Z,0.52
2023-05-25T08:15:29.044Z,0.53
2023-05-25T08:16:30.072Z,0.51
2023-05-25T08:17:30.064Z,0.52
2023-05-25T08:18:30.023Z,0.52
2023-05-25T08:19:30.017Z,0.52
2023-05-25T08:20:30.078Z,0.53
2023-05-25T08:21:29.993Z,0.52
2023-05-25T08:22:29.999Z,0.52
2023-05-25T08:23:29.986Z,0.51
2023-05-25T08:24:28.989Z,0.51
2023-05-25T08:25:29.975Z,0.52
2023-05-25T08:26:45.403Z,0.52
2023-05-25T08:27:29.964Z,0.52
2023-05-25T08:28:29.965Z,0.52
2023-05-25T08:29:29.962Z,0.52
2023-05-25T08:30:29.937Z,0.52
2023-05-25T08:31:30.090Z,0.52
2023-05-25T08:32:29.992Z,0.52
2023-05-25T08:33:29.901Z,0.52
2023-05-25T08:34:29.901Z,0.51
2023-05-25T08:35:28.885Z,0.52
2023-05-25T08:36:29.908Z,0.50
2023-05-25T08:37:29.884Z,0.52
2023-05-25T08:38:28.888Z,0.51
2023-05-25T08:39:29.867Z,0.51
2023-05-25T08:40:29.853Z,0.51
2023-05-25T08:41:29.847Z,0.52
2023-05-25T08:42:28.848Z,0.52
2023-05-25T08:43:29.827Z,0.51
2023-05-25T08:44:28.852Z,0.52
2023-05-25T08:45:36.113Z,0.51
2023-05-25T08:46:29.824Z,0.52
2023-05-25T08:47:29.829Z,0.52
2023-05-25T08:48:40.076Z,0.52
2023-05-25T08:49:29.834Z,0.52
2023-05-25T08:50:28.791Z,0.52
2023-05-25T08:51:28.789Z,0.52
2023-05-25T08:52:29.772Z,0.53
2023-05-25T08:53:29.767Z,0.52
2023-05-25T08:54:28.761Z,0.53
2023-05-25T08:55:28.752Z,0.52
2023-05-25T08:56:29.973Z,0.52
2023-05-25T08:57:29.761Z,0.52
2023-05-25T08:58:29.731Z,0.52
2023-05-25T08:59:29.729Z,0.51
2023-05-25T09:00:29.873Z,0.53
2023-05-25T09:01:29.759Z,0.52
2023-05-25T09:02:28.849Z,0.52
2023-05-25T09:03:28.928Z,0.52
2023-05-25T09:04:29.686Z,0.51
2023-05-25T09:05:28.681Z,0.52
2023-05-25T09:06:29.678Z,0.51
2023-05-25T09:07:28.660Z,0.52
2023-05-25T09:08:29.726Z,0.52
2023-05-25T09:09:28.653Z,0.52
2023-05-25T09:10:29.635Z,0.52
2023-05-25T09:11:38.944Z,0.51
2023-05-25T09:12:29.645Z,0.52
2023-05-25T09:13:29.642Z,0.52
2023-05-25T09:14:29.645Z,0.52
2023-05-25T09:15:28.610Z,0.52
2023-05-25T09:16:29.662Z,0.52
2023-05-25T09:17:29.591Z,0.51
2023-05-25T09:18:28.624Z,0.52
2023-05-25T09:19:29.593Z,0.53
2023-05-25T09:20:29.629Z,0.52
2023-05-25T09:21:29.595Z,0.53
2023-05-25T09:22:29.564Z,0.51
2023-05-25T09:23:29.598Z,0.53
2023-05-25T09:24:28.543Z,0.52
2023-05-25T09:25:28.568Z,0.52
2023-05-25T09:26:29.586Z,0.52
2023-05-25T09:27:28.539Z,0.51
2023-05-25T09:28:29.549Z,0.52
2023-05-25T09:29:28.527Z,0.52
2023-05-25T09:30:29.527Z,0.52
2023-05-25T09:31:29.533Z,0.52
2023-05-25T09:32:29.712Z,0.53
2023-05-25T09:33:29.529Z,0.51
2023-05-25T09:34:29.495Z,0.52
2023-05-25T09:35:29.500Z,0.52
2023-05-25T09:36:29.558Z,0.52
2023-05-25T09:37:29.733Z,0.51
2023-05-25T09:38:28.781Z,0.52
2023-05-25T09:39:29.737Z,0.52
2023-05-25T09:40:29.737Z,0.52
2023-05-25T09:41:29.808Z,0.52
2023-05-25T09:42:28.855Z,0.52
2023-05-25T09:43:40.598Z,0.52
2023-05-25T09:44:29.884Z,0.52
2023-05-25T09:45:29.872Z,0.53
2023-05-25T09:46:30.007Z,0.53
2023-05-25T09:47:29.899Z,0.53
2023-05-25T09:48:29.881Z,0.53
2023-05-25T09:49:29.849Z,0.53
2023-05-25T09:50:29.881Z,0.52
2023-05-25T09:51:29.982Z,0.53
2023-05-25T09:52:29.845Z,0.53
2023-05-25T09:53:29.841Z,0.54
2023-05-25T09:54:29.852Z,0.52
2023-05-25T09:55:40.039Z,0.53
2023-05-25T09:56:29.809Z,0.53
2023-05-25T09:57:28.803Z,0.53
2023-05-25T09:58:28.824Z,0.53
2023-05-25T09:59:28.792Z,0.53
2023-05-25T10:00:29.788Z,0.54
2023-05-25T10:01:28.817Z,0.53
2023-05-25T10:02:29.808Z,0.53
2023-05-25T10:03:28.755Z,0.53
2023-05-25T10:04:29.816Z,0.51
2023-05-25T10:05:28.735Z,0.52
2023-05-25T10:06:29.735Z,0.52
2023-05-25T10:07:29.715Z,0.52
2023-05-25T10:08:29.710Z,0.53
2023-05-25T10:09:28.709Z,0.53
2023-05-25T10:10:29.701Z,0.53
2023-05-25T10:11:29.686Z,0.53
2023-05-25T10:12:29.690Z,0.53
2023-05-25T10:13:29.678Z,0.53
2023-05-25T10:14:29.366Z,0.52
2023-05-25T10:15:28.671Z,0.53
2023-05-25T10:16:29.977Z,0.52
2023-05-25T10:17:29.697Z,0.52
2023-05-25T10:18:29.670Z,0.53
2023-05-25T10:19:28.652Z,0.53
2023-05-25T10:20:30.530Z,0.53
2023-05-25T10:21:29.633Z,0.53
2023-05-25T10:22:29.654Z,0.54
2023-05-25T10:23:29.629Z,0.53
2023-05-25T10:24:29.627Z,0.53
2023-05-25T10:25:29.631Z,0.53
2023-05-25T10:26:29.598Z,0.53
2023-05-25T10:27:29.591Z,0.53
2023-05-25T10:28:28.610Z,0.53
2023-05-25T10:29:29.607Z,0.53
2023-05-25T10:30:28.573Z,0.53
2023-05-25T10:31:29.972Z,0.53
2023-05-25T10:32:28.628Z,0.53
2023-05-25T10:34:28.527Z,0.53
2023-05-25T10:35:30.100Z,0.53
2023-05-25T10:36:28.559Z,0.53
2023-05-25T10:37:28.534Z,0.53
2023-05-25T10:38:29.512Z,0.53
2023-05-25T10:39:28.501Z,0.54
2023-05-25T10:40:29.511Z,0.54
2023-05-25T10:41:29.476Z,0.53
2023-05-25T10:42:28.488Z,0.54
2023-05-25T10:43:29.474Z,0.53
2023-05-25T10:44:29.452Z,0.54
2023-05-25T10:45:29.462Z,0.54
2023-05-25T10:46:29.491Z,0.53
2023-05-25T10:47:28.560Z,0.54
2023-05-25T10:48:29.436Z,0.54
2023-05-25T10:49:28.419Z,0.53
2023-05-25T10:50:29.414Z,0.54
2023-05-25T10:51:29.403Z,0.53
2023-05-25T10:52:29.451Z,0.54
2023-05-25T10:53:29.398Z,0.54
2023-05-25T10:54:29.390Z,0.54
2023-05-25T10:55:29.373Z,0.53
2023-05-25T10:56:28.426Z,0.53
2023-05-25T10:57:28.420Z,0.54
2023-05-25T10:58:29.361Z,0.54
2023-05-25T10:59:28.351Z,0.54
2023-05-25T11:00:28.374Z,0.55
2023-05-25T11:01:29.459Z,0.54
2023-05-25T11:02:28.453Z,0.53
2023-05-25T11:03:29.474Z,0.54
2023-05-25T11:04:29.620Z,0.53
2023-05-25T11:05:29.594Z,0.53
2023-05-25T11:06:29.636Z,0.54
2023-05-25T11:07:28.696Z,0.53
2023-05-25T11:08:28.711Z,0.54
2023-05-25T11:09:29.754Z,0.53
2023-05-25T11:10:28.761Z,0.53
2023-05-25T11:11:28.772Z,0.53
2023-05-25T11:12:28.836Z,0.53
2023-05-25T11:13:28.842Z,0.53
2023-05-25T11:14:28.901Z,0.53
2023-05-25T11:15:29.923Z,0.54
2023-05-25T11:16:29.992Z,0.53
2023-05-25T11:17:29.059Z,0.53
2023-05-25T11:18:30.062Z,0.54
2023-05-25T11:19:29.112Z,0.54
2023-05-25T11:20:30.237Z,0.53
2023-05-25T11:21:30.206Z,0.54
2023-05-25T11:22:29.239Z,0.53
2023-05-25T11:23:29.242Z,0.54
2023-05-25T11:24:29.338Z,0.54
2023-05-25T11:25:29.341Z,0.54
2023-05-25T11:26:30.383Z,0.53
2023-05-25T11:27:30.465Z,0.53
2023-05-25T11:28:29.484Z,0.53
2023-05-25T11:29:30.508Z,0.53
2023-05-25T11:30:29.564Z,0.53
2023-05-25T11:31:29.715Z,0.53
2023-05-25T11:32:29.730Z,0.52
2023-05-25T11:33:30.697Z,0.53
2023-05-25T11:34:29.770Z,0.53
2023-05-25T11:35:29.808Z,0.53
2023-05-25T11:36:29.868Z,0.53
2023-05-25T11:37:30.028Z,0.53
2023-05-25T11:38:30.890Z,0.53
2023-05-25T11:39:29.926Z,0.52
2023-05-25T11:40:31.003Z,0.53
2023-05-25T11:41:30.017Z,0.54
2023-05-25T11:42:31.518Z,0.54
2023-05-25T11:43:30.103Z,0.52
2023-05-25T11:44:30.128Z,0.53
2023-05-25T11:45:31.176Z,0.52
2023-05-25T11:46:31.306Z,0.53
2023-05-25T11:47:33.215Z,0.53
2023-05-25T11:48:31.264Z,0.54
2023-05-25T11:49:31.252Z,0.54
2023-05-25T11:50:31.234Z,0.53
2023-05-25T11:51:31.237Z,0.53
2023-05-25T11:52:31.249Z,0.52
2023-05-25T11:53:32.464Z,0.52
2023-05-25T11:54:31.205Z,0.54
2023-05-25T11:55:31.218Z,0.54
2023-05-25T11:56:35.669Z,0.53
2023-05-25T11:57:31.202Z,0.53
2023-05-25T11:58:31.227Z,0.53
2023-05-25T11:59:32.352Z,0.53
2023-05-25T12:00:31.272Z,0.53
2023-05-25T12:01:30.276Z,0.51
2023-05-25T12:02:31.325Z,0.51
2023-05-25T12:03:31.419Z,0.52
2023-05-25T12:04:30.472Z,0.50
2023-05-25T12:05:30.477Z,0.51
2023-05-25T12:06:31.425Z,0.51
2023-05-25T12:07:31.451Z,0.51
2023-05-25T12:08:30.461Z,0.51
2023-05-25T12:09:31.508Z,0.50
2023-05-25T12:10:31.530Z,0.50
2023-05-25T12:11:31.570Z,0.51
2023-05-25T12:12:30.612Z,0.52
2023-05-25T12:13:31.621Z,0.52
2023-05-25T12:14:31.649Z,0.52
2023-05-25T12:15:31.673Z,0.52
2023-05-25T12:16:30.738Z,0.51
2023-05-25T12:17:31.768Z,0.51
2023-05-25T12:18:30.776Z,0.52
2023-05-25T12:19:31.826Z,0.53
2023-05-25T12:20:31.911Z,0.54
2023-05-25T12:21:31.880Z,0.54
2023-05-25T12:22:31.969Z,0.54
2023-05-25T12:23:31.985Z,0.55
2023-05-25T12:24:32.006Z,0.55
2023-05-25T12:25:38.763Z,0.54
2023-05-25T12:26:32.035Z,0.54
2023-05-25T12:27:32.061Z,0.54
2023-05-25T12:28:31.060Z,0.54
2023-05-25T12:29:32.040Z,0.54
2023-05-25T12:30:31.156Z,0.56
2023-05-25T12:31:31.202Z,0.55
2023-05-25T12:32:31.037Z,0.55
2023-05-25T12:33:31.006Z,0.56
2023-05-25T12:34:30.980Z,0.55
2023-05-25T12:35:31.994Z,0.55
2023-05-25T12:36:31.988Z,0.56
2023-05-25T12:37:30.987Z,0.57
2023-05-25T12:38:31.958Z,0.57
2023-05-25T12:39:31.949Z,0.56
2023-05-25T12:40:31.942Z,0.56
2023-05-25T12:41:31.971Z,0.54
2023-05-25T12:42:30.946Z,0.55
2023-05-25T12:43:31.918Z,0.56
2023-05-25T12:44:31.957Z,0.57
2023-05-25T12:45:31.912Z,0.56
2023-05-25T12:46:30.944Z,0.56
2023-05-25T12:47:30.958Z,0.57
2023-05-25T12:48:30.917Z,0.56
2023-05-25T12:49:31.888Z,0.56
2023-05-25T12:50:30.870Z,0.56
2023-05-25T12:51:30.879Z,0.57
2023-05-25T12:52:30.898Z,0.55
2023-05-25T12:53:31.888Z,0.56
2023-05-25T12:54:31.858Z,0.56
2023-05-25T12:55:30.889Z,0.56
2023-05-25T12:56:31.844Z,0.56
2023-05-25T12:57:31.830Z,0.55
2023-05-25T12:58:31.846Z,0.56
2023-05-25T12:59:31.827Z,0.56
2023-05-25T13:00:30.827Z,0.56
2023-05-25T13:01:30.895Z,0.57
2023-05-25T13:02:30.875Z,0.56
2023-05-25T13:03:31.909Z,0.56
2023-05-25T13:04:31.957Z,0.56
2023-05-25T13:05:32.034Z,0.56
2023-05-25T13:06:32.011Z,0.56
2023-05-25T13:07:32.073Z,0.56
2023-05-25T13:08:31.095Z,0.57
2023-05-25T13:09:32.163Z,0.56
2023-05-25T13:10:32.161Z,0.55
2023-05-25T13:11:32.217Z,0.55
2023-05-25T13:12:32.248Z,0.55
2023-05-25T13:13:31.258Z,0.55
2023-05-25T13:14:31.312Z,0.56
2023-05-25T13:15:31.283Z,0.55
2023-05-25T13:16:32.417Z,0.55
2023-05-25T13:17:32.377Z,0.54
2023-05-25T13:18:31.340Z,0.55
2023-05-25T13:19:31.305Z,0.54